Time;durP1;ratioP1;P1;durP2;ratioP2;P2;SDS_P1;SDS_P2;PMS_P1;PMS_P2;Temp;Humidity;BMP_temperature;BMP_pressure;BME280_temperature;BME280_humidity;BME280_pressure;Samples;Min_cycle;Max_cycle;Signal;HPM_P1;HPM_P2
2022/10/07 00:00:19;;;;;;;11.57;4.68;;;11.00;99.90;;;;;;5021759;28;20121;-77
2022/10/07 00:02:45;;;;;;;12.35;4.85;;;10.90;99.90;;;;;;5023782;28;20404;-76
2022/10/07 00:05:11;;;;;;;11.18;4.88;;;11.00;99.90;;;;;;5024697;28;20049;-77
2022/10/07 00:07:36;;;;;;;12.15;5.13;;;11.00;99.90;;;;;;5003758;28;20052;-76
2022/10/07 00:10:03;;;;;;;10.57;4.70;;;11.00;99.90;;;;;;5024718;28;20103;-76
2022/10/07 00:12:28;;;;;;;12.63;5.10;;;11.00;99.90;;;;;;5019572;28;20041;-77
2022/10/07 00:14:54;;;;;;;13.35;4.72;;;11.00;99.90;;;;;;5024698;28;21481;-77
2022/10/07 00:17:20;;;;;;;12.60;4.75;;;11.00;99.90;;;;;;5025014;28;20187;-75
2022/10/07 00:19:46;;;;;;;14.23;4.60;;;10.90;99.90;;;;;;5022555;28;20042;-76
2022/10/07 00:22:11;;;;;;;12.75;5.00;;;11.00;99.90;;;;;;5022576;28;20048;-76
2022/10/07 00:24:37;;;;;;;14.13;5.05;;;11.00;99.90;;;;;;5006223;28;20045;-78
2022/10/07 00:27:03;;;;;;;16.17;4.85;;;10.90;99.90;;;;;;5025440;28;20546;-77
2022/10/07 00:29:29;;;;;;;9.63;4.50;;;10.90;99.90;;;;;;5024315;28;20029;-77
2022/10/07 00:31:54;;;;;;;14.23;5.10;;;10.90;99.90;;;;;;5005606;28;20874;-78
2022/10/07 00:34:20;;;;;;;13.55;4.80;;;10.90;99.90;;;;;;5020159;28;20045;-77
2022/10/07 00:36:48;;;;;;;11.88;5.00;;;10.90;99.90;;;;;;5015102;28;20049;-77
2022/10/07 00:39:14;;;;;;;12.27;4.68;;;10.80;99.90;;;;;;5025389;28;20487;-78
2022/10/07 00:41:49;;;;;;;13.63;4.95;;;10.80;99.90;;;;;;5025307;28;20041;-77
2022/10/07 00:44:38;;;;;;;11.98;4.93;;;10.80;99.90;;;;;;5021932;28;20045;-77
2022/10/07 00:47:27;;;;;;;11.88;4.82;;;10.80;99.90;;;;;;5024739;28;20052;-77
2022/10/07 00:50:14;;;;;;;12.43;4.70;;;10.80;99.90;;;;;;5020027;28;20107;-77
2022/10/07 00:52:48;;;;;;;14.15;4.45;;;10.90;99.90;;;;;;5023880;28;20053;-77
2022/10/07 00:55:17;;;;;;;11.73;4.60;;;10.80;99.90;;;;;;5023666;28;20455;-77
2022/10/07 00:57:45;;;;;;;14.25;4.70;;;10.90;99.90;;;;;;5026672;28;20045;-75
2022/10/07 01:00:11;;;;;;;11.73;4.20;;;10.80;99.90;;;;;;5025891;28;20075;-74
2022/10/07 01:02:38;;;;;;;12.73;4.80;;;10.80;99.90;;;;;;5021240;28;20041;-75
2022/10/07 01:05:06;;;;;;;12.73;4.80;;;10.80;99.90;;;;;;5022081;28;20049;-74
2022/10/07 01:07:32;;;;;;;11.77;4.35;;;10.80;99.90;;;;;;5024234;28;20061;-74
2022/10/07 01:10:00;;;;;;;12.57;4.72;;;10.80;99.90;;;;;;5023608;28;20605;-74
2022/10/07 01:12:28;;;;;;;;;;;10.80;99.90;;;;;;5024901;28;20089;-73
2022/10/07 01:15:07;;;;;;;9.43;4.55;;;10.80;99.90;;;;;;5024256;28;19920;-74
2022/10/07 01:17:52;;;;;;;11.80;4.75;;;10.80;99.90;;;;;;5017673;28;20546;-74
2022/10/07 01:20:32;;;;;;;14.88;4.88;;;10.80;99.90;;;;;;5004191;28;20048;-75
2022/10/07 01:23:22;;;;;;;10.57;4.78;;;10.80;99.90;;;;;;5021450;28;20042;-74
2022/10/07 01:26:09;;;;;;;13.50;4.88;;;10.80;99.90;;;;;;5025427;28;20453;-75
2022/10/07 01:28:54;;;;;;;12.55;5.03;;;10.80;99.90;;;;;;5018345;28;20053;-75
2022/10/07 01:31:32;;;;;;;13.70;4.70;;;10.80;99.90;;;;;;5020016;28;20755;-74
2022/10/07 01:33:58;;;;;;;16.05;5.00;;;10.80;99.90;;;;;;5021801;28;20073;-74
2022/10/07 01:36:25;;;;;;;14.88;4.90;;;10.80;99.90;;;;;;5005444;28;20087;-73
2022/10/07 01:39:01;;;;;;;15.60;4.30;;;10.80;99.90;;;;;;5005923;28;20053;-74
2022/10/07 01:41:29;;;;;;;13.32;4.40;;;10.80;99.90;;;;;;5025380;28;20103;-74
2022/10/07 01:43:56;;;;;;;12.43;4.18;;;10.80;99.90;;;;;;5024918;28;20037;-74
2022/10/07 01:46:23;;;;;;;;;;;10.80;99.90;;;;;;5025210;28;20700;-75
2022/10/07 01:48:50;;;;;;;14.65;4.55;;;10.70;99.90;;;;;;5003332;28;20019;-73
2022/10/07 01:51:19;;;;;;;14.13;4.38;;;10.70;99.90;;;;;;5023358;28;20080;-73
2022/10/07 01:54:15;;;;;;;16.33;4.35;;;10.80;99.90;;;;;;5023546;28;20044;-74
2022/10/07 01:56:47;;;;;;;12.53;4.17;;;10.70;99.90;;;;;;5002441;28;20141;-73
2022/10/07 02:00:04;;;;;;;11.63;4.18;;;10.70;99.90;;;;;;5005824;28;20073;-72
2022/10/07 02:02:48;;;;;;;11.82;4.28;;;10.70;99.90;;;;;;4965323;28;20104;-73
2022/10/07 02:05:38;;;;;;;12.88;4.38;;;10.70;99.90;;;;;;5021606;28;20037;-74
2022/10/07 02:08:15;;;;;;;14.25;4.35;;;10.70;99.90;;;;;;5022609;28;20058;-73
2022/10/07 02:11:04;;;;;;;11.52;4.25;;;10.60;99.90;;;;;;5015355;28;20045;-73
2022/10/07 02:13:42;;;;;;;13.90;4.85;;;10.60;99.90;;;;;;4991736;28;20057;-73
2022/10/07 02:16:32;;;;;;;12.85;3.95;;;10.60;99.90;;;;;;5020741;28;20045;-72
2022/10/07 02:19:01;;;;;;;10.77;4.03;;;10.60;99.90;;;;;;5022000;28;20048;-73
2022/10/07 02:21:32;;;;;;;13.32;4.38;;;10.60;99.90;;;;;;5023520;28;20077;-72
2022/10/07 02:23:59;;;;;;;12.18;4.38;;;10.60;99.90;;;;;;5023641;28;20770;-73
2022/10/07 02:26:26;;;;;;;;;;;10.60;99.90;;;;;;5022019;28;20061;-73
2022/10/07 02:28:54;;;;;;;13.02;4.38;;;10.50;99.90;;;;;;5026333;28;19925;-73
2022/10/07 02:31:24;;;;;;;14.18;4.28;;;10.50;99.90;;;;;;5023530;28;20053;-73
2022/10/07 02:33:52;;;;;;;13.32;4.45;;;10.50;99.90;;;;;;5023509;28;20084;-73
2022/10/07 02:36:27;;;;;;;13.27;4.90;;;10.50;99.90;;;;;;5025743;28;20084;-73
2022/10/07 02:38:54;;;;;;;14.40;4.70;;;10.50;99.90;;;;;;5025387;28;20056;-73
2022/10/07 02:41:59;;;;;;;15.23;4.57;;;10.50;99.90;;;;;;5027766;28;20049;-73
2022/10/07 02:44:33;;;;;;;14.05;4.30;;;10.50;99.90;;;;;;5008244;28;20077;-73
2022/10/07 02:47:18;;;;;;;15.23;5.13;;;10.60;99.90;;;;;;5024385;28;20041;-73
2022/10/07 02:49:48;;;;;;;15.68;4.53;;;10.50;99.90;;;;;;5024777;28;20053;-72
2022/10/07 02:52:17;;;;;;;13.32;4.20;;;10.50;99.90;;;;;;5034316;28;20467;-74
2022/10/07 02:54:50;;;;;;;13.88;4.55;;;10.50;99.90;;;;;;5027871;28;20044;-73
2022/10/07 02:57:18;;;;;;;13.07;4.25;;;10.60;99.90;;;;;;5006339;28;20377;-73
2022/10/07 02:59:46;;;;;;;13.98;4.80;;;10.50;99.90;;;;;;5025198;28;20120;-73
2022/10/07 03:02:16;;;;;;;16.83;4.97;;;10.50;99.90;;;;;;5022795;28;20519;-73
2022/10/07 03:04:42;;;;;;;16.75;4.80;;;10.50;99.90;;;;;;5009878;28;20041;-73
2022/10/07 03:07:09;;;;;;;10.50;4.22;;;10.50;99.90;;;;;;5025054;28;20667;-73
2022/10/07 03:09:34;;;;;;;15.27;4.65;;;10.50;99.90;;;;;;4999367;28;20108;-73
2022/10/07 03:12:00;;;;;;;14.43;5.43;;;10.50;99.90;;;;;;5007523;28;20049;-73
2022/10/07 03:14:26;;;;;;;15.93;5.00;;;10.50;99.90;;;;;;5025168;28;20045;-73
2022/10/07 03:16:52;;;;;;;13.95;4.57;;;10.40;99.90;;;;;;5025833;28;20041;-72
2022/10/07 03:19:17;;;;;;;16.77;4.95;;;10.50;99.90;;;;;;5022395;28;20034;-74
2022/10/07 03:21:43;;;;;;;16.23;4.60;;;10.40;99.90;;;;;;5007300;28;20048;-74
2022/10/07 03:24:10;;;;;;;14.77;4.80;;;10.40;99.90;;;;;;5028444;28;20037;-75
2022/10/07 03:26:35;;;;;;;15.98;5.00;;;10.40;99.90;;;;;;5028127;28;21074;-74
2022/10/07 03:29:02;;;;;;;15.35;4.82;;;10.30;99.90;;;;;;5026104;28;20048;-74
2022/10/07 03:31:28;;;;;;;13.68;5.10;;;10.30;99.90;;;;;;5025339;28;20037;-74
2022/10/07 03:33:55;;;;;;;14.07;4.50;;;10.30;99.90;;;;;;5024154;28;20042;-74
2022/10/07 03:36:22;;;;;;;;;;;10.30;99.90;;;;;;5000168;28;20060;-74
2022/10/07 03:38:48;;;;;;;13.77;5.10;;;10.30;99.90;;;;;;5007300;28;19921;-74
2022/10/07 03:41:15;;;;;;;13.18;4.35;;;10.20;99.90;;;;;;5010516;28;20045;-74
2022/10/07 03:43:40;;;;;;;10.60;4.45;;;10.20;99.90;;;;;;5026993;28;20048;-74
2022/10/07 03:46:06;;;;;;;13.55;4.50;;;10.20;99.90;;;;;;5026692;28;20037;-74
2022/10/07 03:48:31;;;;;;;22.40;5.28;;;10.20;99.90;;;;;;5022774;28;20385;-74
2022/10/07 03:50:57;;;;;;;16.45;5.25;;;10.20;99.90;;;;;;5020094;28;20053;-74
2022/10/07 03:53:25;;;;;;;16.27;4.90;;;10.20;99.90;;;;;;5023871;28;20128;-74
2022/10/07 03:55:50;;;;;;;18.83;4.88;;;10.10;99.90;;;;;;5027562;28;20544;-74
2022/10/07 03:58:16;;;;;;;15.57;4.60;;;10.20;99.90;;;;;;5005502;28;20416;-74
2022/10/07 04:00:42;;;;;;;13.43;4.53;;;10.00;99.90;;;;;;5021127;28;20115;-73
2022/10/07 04:03:08;;;;;;;12.25;4.50;;;10.20;99.90;;;;;;5018397;28;20400;-75
2022/10/07 04:05:35;;;;;;;11.48;4.57;;;10.10;99.90;;;;;;5024062;28;20455;-74
2022/10/07 04:08:03;;;;;;;14.75;4.53;;;10.10;99.90;;;;;;5023523;28;20053;-74
2022/10/07 04:10:29;;;;;;;15.45;4.47;;;10.10;99.90;;;;;;5026912;28;20148;-74
2022/10/07 04:12:55;;;;;;;15.45;5.05;;;10.10;99.90;;;;;;5025867;28;20408;-75
2022/10/07 04:15:21;;;;;;;14.90;4.70;;;10.10;99.90;;;;;;5005421;28;20076;-74
2022/10/07 04:17:47;;;;;;;17.33;5.18;;;10.10;99.90;;;;;;5022530;28;20143;-74
2022/10/07 04:20:15;;;;;;;13.27;4.68;;;10.00;99.90;;;;;;5026107;28;20033;-73
2022/10/07 04:22:41;;;;;;;17.00;4.82;;;10.10;99.90;;;;;;5020998;28;20042;-74
2022/10/07 04:27:55;;;;;;;14.77;4.32;;;10.10;99.90;;;;;;5021400;28;20128;-74
2022/10/07 04:30:23;;;;;;;20.77;5.55;;;10.10;99.90;;;;;;5021897;28;20049;-74
2022/10/07 04:32:49;;;;;;;17.33;5.00;;;10.10;99.90;;;;;;5026235;28;20057;-74
2022/10/07 04:35:19;;;;;;;18.67;5.05;;;10.10;99.90;;;;;;5018653;28;20064;-76
2022/10/07 04:37:48;;;;;;;16.48;5.28;;;10.10;99.90;;;;;;5018891;28;20400;-75
2022/10/07 04:40:14;;;;;;;12.45;4.43;;;10.00;99.90;;;;;;5006400;28;20051;-78
2022/10/07 04:45:24;;;;;;;17.55;5.13;;;10.00;99.90;;;;;;5025259;28;20481;-76
2022/10/07 04:47:50;;;;;;;14.80;4.80;;;10.00;99.90;;;;;;5006299;28;20110;-76
2022/10/07 04:50:16;;;;;;;16.38;5.30;;;9.90;99.90;;;;;;5025937;28;20099;-76
2022/10/07 04:52:42;;;;;;;17.58;5.25;;;10.00;99.90;;;;;;5005422;28;20041;-76
2022/10/07 04:55:11;;;;;;;17.75;5.25;;;10.00;99.90;;;;;;5023049;28;22001;-77
2022/10/07 04:57:37;;;;;;;20.63;5.28;;;10.00;99.90;;;;;;5021372;28;20045;-76
2022/10/07 05:00:03;;;;;;;13.38;4.80;;;10.00;99.90;;;;;;5003096;28;20041;-78
2022/10/07 05:02:29;;;;;;;20.27;5.25;;;10.00;99.90;;;;;;5018323;28;20046;-79
2022/10/07 05:04:55;;;;;;;16.38;5.05;;;10.00;99.90;;;;;;5025372;28;20448;-79
2022/10/07 05:07:20;;;;;;;17.52;5.13;;;10.00;99.90;;;;;;5024239;28;20110;-76
2022/10/07 05:09:46;;;;;;;15.88;4.55;;;10.00;99.90;;;;;;5025429;28;20131;-76
2022/10/07 05:12:11;;;;;;;17.10;4.95;;;10.00;99.90;;;;;;5023787;28;20051;-75
2022/10/07 05:14:40;;;;;;;15.90;4.82;;;10.00;99.90;;;;;;5022027;28;20046;-76
2022/10/07 05:17:06;;;;;;;19.85;5.32;;;10.00;99.90;;;;;;5019323;28;20427;-76
2022/10/07 05:19:32;;;;;;;18.80;6.13;;;10.00;99.90;;;;;;5024039;28;20045;-76
2022/10/07 05:21:58;;;;;;;21.63;5.60;;;10.00;99.90;;;;;;5024178;28;20400;-76
2022/10/07 05:24:23;;;;;;;24.02;5.43;;;10.10;99.90;;;;;;5006727;28;20037;-75
2022/10/07 05:26:50;;;;;;;20.65;5.30;;;10.10;99.90;;;;;;5025524;28;20409;-78
2022/10/07 05:29:15;;;;;;;21.25;5.53;;;10.10;99.90;;;;;;5019981;28;20477;-77
2022/10/07 05:31:41;;;;;;;18.98;5.43;;;10.10;99.90;;;;;;5019417;28;20056;-79
2022/10/07 05:34:07;;;;;;;16.27;5.13;;;10.10;99.90;;;;;;5024263;28;20049;-77
2022/10/07 05:36:33;;;;;;;17.08;5.18;;;10.20;99.90;;;;;;5019648;28;20033;-77
2022/10/07 05:38:59;;;;;;;18.98;5.85;;;10.20;99.90;;;;;;5022541;28;20037;-78
2022/10/07 05:41:27;;;;;;;18.55;5.43;;;10.20;99.90;;;;;;5027128;28;20048;-77
2022/10/07 05:43:53;;;;;;;22.15;6.50;;;10.20;99.90;;;;;;5027406;28;20056;-76
2022/10/07 05:46:19;;;;;;;16.85;5.85;;;10.20;99.90;;;;;;5021338;28;20479;-76
2022/10/07 05:48:46;;;;;;;18.30;6.43;;;10.20;99.90;;;;;;5022977;28;20104;-77
2022/10/07 05:51:15;;;;;;;17.17;6.20;;;10.20;99.90;;;;;;5025688;28;20880;-76
2022/10/07 05:53:41;;;;;;;18.60;6.15;;;10.20;99.90;;;;;;5006782;28;20037;-76
2022/10/07 05:56:09;;;;;;;14.77;5.65;;;10.20;99.90;;;;;;5025036;28;20046;-75
2022/10/07 05:58:38;;;;;;;19.95;5.68;;;10.20;99.90;;;;;;5020089;28;20041;-76
2022/10/07 06:01:05;;;;;;;18.02;6.10;;;10.20;99.90;;;;;;5005822;28;20111;-76
2022/10/07 06:03:34;;;;;;;19.77;6.40;;;10.30;99.90;;;;;;5021016;28;20455;-75
2022/10/07 06:06:00;;;;;;;16.08;5.80;;;10.20;99.90;;;;;;5024411;28;20046;-75
2022/10/07 06:08:29;;;;;;;18.02;5.20;;;10.30;99.90;;;;;;5009209;28;20056;-75
2022/10/07 06:13:49;;;;;;;16.92;5.82;;;10.30;99.90;;;;;;5025644;28;20049;-74
2022/10/07 06:16:15;;;;;;;19.67;5.72;;;10.30;99.90;;;;;;5024826;28;21013;-75
2022/10/07 06:18:44;;;;;;;19.30;6.18;;;10.40;99.90;;;;;;5027903;28;20038;-75
2022/10/07 06:21:11;;;;;;;16.85;5.90;;;10.30;99.90;;;;;;5026724;28;20053;-76
2022/10/07 06:23:37;;;;;;;18.03;6.30;;;10.30;99.90;;;;;;5025729;28;20176;-75
2022/10/07 06:26:08;;;;;;;19.65;5.78;;;10.30;99.90;;;;;;5026459;28;20393;-76
2022/10/07 06:28:36;;;;;;;19.05;5.93;;;10.40;99.90;;;;;;5022538;28;20043;-75
2022/10/07 06:31:04;;;;;;;18.52;6.10;;;10.40;99.90;;;;;;5028455;28;20408;-75
2022/10/07 06:33:30;;;;;;;18.35;6.75;;;10.40;99.90;;;;;;5026661;28;20049;-75
2022/10/07 06:35:55;;;;;;;16.48;5.10;;;10.50;99.90;;;;;;5010856;28;20120;-75
2022/10/07 06:38:22;;;;;;;22.05;5.72;;;10.50;99.90;;;;;;5025753;28;20100;-75
2022/10/07 06:40:58;;;;;;;17.95;5.82;;;10.50;99.90;;;;;;5022710;28;20038;-75
2022/10/07 06:43:28;;;;;;;13.50;5.70;;;10.60;99.90;;;;;;5008541;28;20095;-76
2022/10/07 06:45:58;;;;;;;15.32;5.95;;;10.60;99.90;;;;;;5026171;28;21973;-75
2022/10/07 06:48:25;;;;;;;17.48;5.38;;;10.60;99.90;;;;;;5023444;28;20062;-76
2022/10/07 06:50:58;;;;;;;20.38;5.68;;;10.70;99.90;;;;;;4992991;28;20068;-75
2022/10/07 06:53:24;;;;;;;17.75;5.18;;;10.60;99.90;;;;;;5022542;28;20072;-76
2022/10/07 06:55:53;;;;;;;19.98;5.57;;;10.70;99.90;;;;;;4994153;28;20053;-77
2022/10/07 06:58:22;;;;;;;21.23;5.93;;;10.80;99.90;;;;;;5010718;28;20041;-77
2022/10/07 07:00:52;;;;;;;14.05;5.72;;;10.80;99.90;;;;;;5002737;28;20559;-79
2022/10/07 07:03:20;;;;;;;16.10;6.03;;;10.90;99.90;;;;;;4981227;28;20120;-81
2022/10/07 07:05:46;;;;;;;;;;;10.90;99.90;;;;;;4995844;28;20053;-82
2022/10/07 07:08:14;;;;;;;16.05;5.60;;;10.90;99.90;;;;;;4988055;28;19926;-81
2022/10/07 07:10:42;;;;;;;25.75;5.78;;;11.00;99.90;;;;;;5007030;28;20044;-81
2022/10/07 07:13:08;;;;;;;17.55;5.28;;;11.00;99.90;;;;;;5010536;28;20128;-84
2022/10/07 07:15:35;;;;;;;17.77;5.07;;;11.10;99.90;;;;;;5010678;28;20038;-80
2022/10/07 07:18:01;;;;;;;22.80;5.63;;;11.20;99.90;;;;;;5007683;28;20038;-80
2022/10/07 07:20:34;;;;;;;15.87;5.10;;;11.30;99.90;;;;;;5011710;28;20042;-81
2022/10/07 07:23:00;;;;;;;15.63;5.22;;;11.30;99.90;;;;;;4988308;28;20046;-79
2022/10/07 07:25:27;;;;;;;14.65;5.65;;;11.40;99.90;;;;;;5009867;28;20049;-79
2022/10/07 07:27:54;;;;;;;15.95;5.40;;;11.40;99.90;;;;;;5010825;28;20046;-77
2022/10/07 07:30:22;;;;;;;16.88;5.53;;;11.50;99.90;;;;;;5007686;28;20063;-78
2022/10/07 07:32:48;;;;;;;17.17;5.30;;;11.60;99.90;;;;;;5004085;28;20062;-77
2022/10/07 07:35:14;;;;;;;15.35;5.43;;;11.60;99.90;;;;;;5008921;28;20042;-80
2022/10/07 07:37:40;;;;;;;17.77;5.00;;;11.60;99.90;;;;;;5007030;28;20100;-80
2022/10/07 07:40:06;;;;;;;12.85;5.00;;;11.70;99.90;;;;;;5010501;28;20446;-80
2022/10/07 07:42:33;;;;;;;18.95;5.43;;;11.70;99.90;;;;;;5010359;28;20092;-81
2022/10/07 07:44:58;;;;;;;16.75;4.60;;;11.80;99.90;;;;;;5006404;28;20076;-79
2022/10/07 07:47:26;;;;;;;16.20;4.53;;;11.80;99.90;;;;;;5004469;28;20477;-77
2022/10/07 07:49:52;;;;;;;20.50;5.22;;;11.90;99.90;;;;;;5014730;28;20459;-75
2022/10/07 07:52:18;;;;;;;14.85;4.47;;;12.00;99.90;;;;;;4993694;28;20068;-77
2022/10/07 07:54:44;;;;;;;16.58;4.63;;;12.10;99.90;;;;;;5004598;28;20073;-76
2022/10/07 07:57:10;;;;;;;15.75;4.70;;;12.10;99.90;;;;;;5003031;28;20652;-77
2022/10/07 07:59:36;;;;;;;17.30;4.70;;;12.20;99.90;;;;;;5026679;28;20091;-76
2022/10/07 08:02:03;;;;;;;17.00;4.78;;;12.10;99.90;;;;;;5023688;28;20529;-77
2022/10/07 08:04:29;;;;;;;18.13;4.18;;;12.20;99.90;;;;;;5019384;28;20053;-76
2022/10/07 08:06:55;;;;;;;16.00;4.00;;;12.20;99.90;;;;;;5018945;28;20041;-76
2022/10/07 08:09:21;;;;;;;16.05;4.45;;;12.30;99.90;;;;;;5013737;28;20040;-75
2022/10/07 08:11:47;;;;;;;15.52;4.50;;;12.40;99.90;;;;;;5009460;28;20037;-74
2022/10/07 08:14:14;;;;;;;19.23;4.22;;;12.40;99.90;;;;;;5008965;28;20485;-75
2022/10/07 08:16:42;;;;;;;;;;;12.40;99.90;;;;;;5030276;28;20046;-75
2022/10/07 08:19:10;;;;;;;18.15;4.40;;;12.50;99.90;;;;;;5020985;28;19921;-78
2022/10/07 08:21:36;;;;;;;18.02;4.78;;;12.60;99.90;;;;;;5012639;28;20046;-79
2022/10/07 08:24:03;;;;;;;18.17;4.10;;;12.60;99.90;;;;;;5023222;28;20045;-77
2022/10/07 08:26:31;;;;;;;17.27;4.25;;;12.70;99.90;;;;;;5028764;28;20041;-78
2022/10/07 08:28:59;;;;;;;19.40;4.70;;;12.70;99.90;;;;;;5028847;28;20047;-78
2022/10/07 08:31:28;;;;;;;;;;;12.70;99.90;;;;;;5016627;28;20093;-79
2022/10/07 08:33:57;;;;;;;14.45;4.10;;;12.80;99.90;;;;;;5015407;28;20036;-79
2022/10/07 08:36:25;;;;;;;18.63;4.70;;;12.80;99.90;;;;;;5006534;28;20089;-77
2022/10/07 08:38:50;;;;;;;;;;;12.90;99.90;;;;;;5027277;28;20040;-79
2022/10/07 08:41:51;;;;;;;16.13;4.25;;;13.00;99.90;;;;;;5025234;28;20011;-82
2022/10/07 08:44:30;;;;;;;18.60;4.25;;;13.10;99.90;;;;;;5010653;28;20096;-80
2022/10/07 08:47:02;;;;;;;13.98;4.43;;;13.10;99.90;;;;;;5003622;28;20688;-81
2022/10/07 08:49:47;;;;;;;16.20;4.43;;;13.20;99.90;;;;;;5026859;28;20567;-78
2022/10/07 08:52:38;;;;;;;17.10;3.92;;;13.20;99.90;;;;;;5015109;28;20085;-77
2022/10/07 08:55:17;;;;;;;16.58;4.85;;;13.30;99.90;;;;;;4979673;28;20513;-80
2022/10/07 08:58:03;;;;;;;17.65;4.25;;;13.30;99.90;;;;;;4994395;28;20132;-79
2022/10/07 09:00:45;;;;;;;20.05;4.03;;;13.30;99.90;;;;;;5014575;28;20077;-77
2022/10/07 09:03:25;;;;;;;16.38;3.78;;;13.30;99.90;;;;;;5000004;28;20046;-76
2022/10/07 09:05:53;;;;;;;17.90;3.63;;;13.40;99.90;;;;;;5014270;28;20042;-83
2022/10/07 09:08:29;;;;;;;18.17;3.92;;;13.60;99.90;;;;;;5009686;28;20087;-78
2022/10/07 09:11:14;;;;;;;15.02;3.90;;;13.50;99.90;;;;;;5014134;28;20044;-77
2022/10/07 09:13:45;;;;;;;19.45;4.38;;;13.60;99.90;;;;;;4985014;28;20049;-78
2022/10/07 09:16:25;;;;;;;15.77;3.30;;;13.60;99.90;;;;;;4995036;28;20050;-75
2022/10/07 09:18:56;;;;;;;15.88;3.80;;;13.70;99.90;;;;;;5018130;28;20057;-77
2022/10/07 09:21:38;;;;;;;16.13;3.33;;;13.60;99.90;;;;;;5006388;28;20512;-78
2022/10/07 09:24:23;;;;;;;17.77;4.32;;;13.80;99.90;;;;;;5010243;28;20037;-80
2022/10/07 09:26:54;;;;;;;12.93;3.70;;;13.80;99.90;;;;;;5005649;28;20046;-75
2022/10/07 09:29:26;;;;;;;14.05;3.25;;;13.90;99.90;;;;;;5006110;28;20034;-75
2022/10/07 09:31:52;;;;;;;17.40;3.83;;;13.90;99.90;;;;;;4993378;28;20503;-73
2022/10/07 09:34:22;;;;;;;14.43;3.70;;;13.90;99.90;;;;;;5007082;28;20404;-75
2022/10/07 09:37:09;;;;;;;20.60;3.90;;;13.90;99.90;;;;;;5004596;28;20281;-72
2022/10/07 09:39:35;;;;;;;16.42;3.40;;;14.00;99.90;;;;;;5016807;28;20049;-74
2022/10/07 09:42:05;;;;;;;13.13;3.17;;;14.10;99.90;;;;;;5008265;28;20046;-73
2022/10/07 09:44:31;;;;;;;13.02;3.60;;;14.10;99.90;;;;;;5007373;28;20050;-74
2022/10/07 09:46:58;;;;;;;14.02;3.35;;;14.20;99.90;;;;;;5009841;28;20076;-76
2022/10/07 09:49:27;;;;;;;10.07;3.10;;;14.20;99.90;;;;;;5007277;28;20132;-75
2022/10/07 09:52:24;;;;;;;14.75;3.28;;;14.30;99.90;;;;;;5002684;28;20366;-75
2022/10/07 09:54:55;;;;;;;15.88;3.60;;;14.30;99.90;;;;;;5006341;28;20053;-77
2022/10/07 09:57:31;;;;;;;12.55;3.50;;;14.40;99.90;;;;;;5006707;28;20775;-78
2022/10/07 10:00:12;;;;;;;14.13;3.40;;;14.40;99.90;;;;;;4998607;28;20528;-77
2022/10/07 10:03:02;;;;;;;16.65;3.80;;;14.50;99.90;;;;;;4988361;28;20602;-76
2022/10/07 10:05:34;;;;;;;14.88;3.90;;;14.60;99.90;;;;;;5003411;28;20038;-78
2022/10/07 10:08:22;;;;;;;15.57;3.15;;;14.70;99.90;;;;;;4996205;28;20050;-76
2022/10/07 10:10:54;;;;;;;18.33;4.35;;;14.80;99.90;;;;;;4986875;28;20054;-78
2022/10/07 10:13:37;;;;;;;15.73;3.42;;;14.90;99.90;;;;;;5006039;28;20049;-78
2022/10/07 10:16:25;;;;;;;15.60;3.58;;;14.90;99.90;;;;;;4997381;28;20062;-80
2022/10/07 10:18:55;;;;;;;26.52;4.38;;;15.00;99.90;;;;;;4986399;28;20050;-80
2022/10/07 10:21:28;;;;;;;16.83;3.22;;;15.00;99.90;;;;;;5000235;28;20488;-80
2022/10/07 10:27:18;;;;;;;16.40;3.28;;;15.20;99.90;;;;;;4995386;28;20054;-76
2022/10/07 10:29:44;;;;;;;20.98;3.83;;;15.20;99.90;;;;;;5014208;28;20542;-79
2022/10/07 10:32:42;;;;;;;13.45;3.90;;;15.30;99.90;;;;;;5012202;28;20042;-77
2022/10/07 10:35:26;;;;;;;12.80;3.08;;;15.40;99.90;;;;;;5008923;28;20037;-76
2022/10/07 10:38:01;;;;;;;15.93;3.35;;;15.40;99.90;;;;;;5004642;28;20186;-74
2022/10/07 10:40:46;;;;;;;13.60;2.63;;;15.50;99.90;;;;;;5002133;28;20453;-72
2022/10/07 10:43:24;;;;;;;18.52;3.40;;;15.60;99.90;;;;;;5002114;28;20049;-75
2022/10/07 10:46:08;;;;;;;12.18;3.40;;;15.60;99.90;;;;;;4991578;28;20519;-72
2022/10/07 10:48:52;;;;;;;17.95;3.17;;;15.70;99.90;;;;;;5002061;28;20057;-74
2022/10/07 10:51:31;;;;;;;12.48;2.80;;;15.80;99.90;;;;;;4988929;28;20150;-74
2022/10/07 10:54:30;;;;;;;13.45;2.95;;;15.80;99.90;;;;;;4989248;28;20203;-77
2022/10/07 10:57:10;;;;;;;14.57;3.47;;;15.80;99.90;;;;;;4991019;28;20054;-77
2022/10/07 11:00:11;;;;;;;15.05;3.28;;;15.90;99.90;;;;;;5001363;28;20108;-78
2022/10/07 11:02:37;;;;;;;12.57;2.88;;;16.00;99.90;;;;;;5003964;28;20595;-76
2022/10/07 11:05:23;;;;;;;17.65;3.78;;;16.00;99.90;;;;;;5004499;28;20048;-77
2022/10/07 11:08:16;;;;;;;15.20;3.28;;;16.10;99.90;;;;;;5005915;28;20100;-77
2022/10/07 11:10:50;;;;;;;11.25;2.63;;;16.20;99.90;;;;;;5004192;28;20054;-77
2022/10/07 11:13:30;;;;;;;11.18;2.88;;;16.20;99.90;;;;;;4995646;28;20327;-77
2022/10/07 11:16:04;;;;;;;12.18;3.03;;;16.30;99.90;;;;;;5002633;28;20094;-77
2022/10/07 11:18:39;;;;;;;13.38;2.55;;;16.30;99.90;;;;;;5009065;28;20046;-79
2022/10/07 11:21:11;;;;;;;9.93;2.45;;;16.30;99.90;;;;;;4983919;28;20484;-72
2022/10/07 11:23:47;;;;;;;15.23;3.40;;;16.30;99.90;;;;;;5004941;28;20401;-73
2022/10/07 11:26:28;;;;;;;14.82;3.20;;;16.50;99.90;;;;;;5009412;28;20113;-72
2022/10/07 11:28:57;;;;;;;12.02;3.00;;;16.50;99.90;;;;;;5003546;28;20078;-73
2022/10/07 11:31:39;;;;;;;12.60;3.00;;;16.60;99.90;;;;;;5008693;28;20452;-74
2022/10/07 11:34:23;;;;;;;11.05;3.45;;;16.70;99.90;;;;;;4988662;28;20058;-77
2022/10/07 11:37:02;;;;;;;13.55;3.42;;;16.70;99.90;;;;;;5006324;28;20038;-76
2022/10/07 11:39:28;;;;;;;13.23;3.25;;;16.70;99.90;;;;;;5001967;28;20152;-75
2022/10/07 11:42:02;;;;;;;12.55;3.00;;;16.70;99.90;;;;;;5009328;28;20239;-75
2022/10/07 11:44:45;;;;;;;13.65;2.90;;;16.70;99.90;;;;;;5000950;28;20046;-76
2022/10/07 11:47:16;;;;;;;11.88;2.97;;;16.80;99.90;;;;;;4987700;28;20056;-75
2022/10/07 11:49:54;;;;;;;17.58;3.38;;;16.80;99.90;;;;;;5004648;28;20175;-76
2022/10/07 11:52:32;;;;;;;15.68;3.17;;;16.80;99.90;;;;;;5026021;28;20068;-77
2022/10/07 11:55:06;;;;;;;13.77;2.78;;;16.90;99.90;;;;;;5010057;28;20657;-77
2022/10/07 11:57:37;;;;;;;11.10;2.85;;;16.90;99.90;;;;;;5027685;28;20075;-77
2022/10/07 12:00:18;;;;;;;15.65;3.55;;;16.90;99.90;;;;;;5009591;28;20048;-78
2022/10/07 12:02:45;;;;;;;14.32;2.78;;;16.80;99.90;;;;;;5010197;28;20081;-77
2022/10/07 12:05:33;;;;;;;11.38;2.58;;;16.90;99.90;;;;;;5006721;28;20076;-78
2022/10/07 12:08:30;;;;;;;13.05;2.95;;;16.90;99.90;;;;;;5024022;28;20081;-77
2022/10/07 12:11:11;;;;;;;12.15;2.97;;;16.90;99.90;;;;;;5025796;28;20408;-77
2022/10/07 12:13:44;;;;;;;15.90;3.10;;;16.80;99.90;;;;;;5026989;28;20050;-78
2022/10/07 12:16:22;;;;;;;17.85;3.42;;;16.80;99.90;;;;;;5024975;28;20099;-77
2022/10/07 12:19:06;;;;;;;11.77;3.38;;;16.80;99.90;;;;;;5025888;28;20049;-77
2022/10/07 12:21:58;;;;;;;10.57;2.58;;;16.90;99.90;;;;;;4998945;28;20055;-77
2022/10/07 12:24:34;;;;;;;14.57;2.92;;;16.90;99.90;;;;;;5026455;28;20089;-77
2022/10/07 12:27:18;;;;;;;11.20;3.00;;;16.90;99.90;;;;;;5018918;28;20045;-80
2022/10/07 12:29:57;;;;;;;10.75;2.20;;;16.90;99.90;;;;;;5013216;28;20099;-73
2022/10/07 12:32:50;;;;;;;12.40;2.75;;;17.00;99.90;;;;;;5028860;28;20412;-75
2022/10/07 12:35:40;;;;;;;14.02;2.80;;;17.00;99.90;;;;;;5019709;28;20187;-75
2022/10/07 12:38:09;;;;;;;19.70;3.67;;;17.10;99.90;;;;;;4989490;28;20550;-74
2022/10/07 12:40:36;;;;;;;16.88;3.22;;;17.10;99.90;;;;;;5022964;28;20065;-77
2022/10/07 12:43:20;;;;;;;15.02;2.97;;;17.10;99.90;;;;;;5027272;28;20045;-84
2022/10/07 12:45:46;;;;;;;14.48;2.70;;;17.20;99.90;;;;;;4994215;28;20049;-85
2022/10/07 12:48:19;;;;;;;9.93;2.22;;;17.20;99.90;;;;;;5022649;28;20455;-85
2022/10/07 12:50:48;;;;;;;11.70;2.90;;;17.10;99.90;;;;;;5013213;28;20119;-85
2022/10/07 12:53:15;;;;;;;11.30;2.60;;;17.20;99.90;;;;;;5027181;28;20605;-83
2022/10/07 12:55:47;;;;;;;15.50;2.78;;;17.30;99.90;;;;;;5024171;28;20589;-76
2022/10/07 13:01:43;;;;;;;12.30;3.00;;;17.20;99.90;;;;;;5022111;28;20397;-78
2022/10/07 13:04:30;;;;;;;13.68;2.53;;;17.20;99.90;;;;;;5004886;28;20080;-77
2022/10/07 13:07:29;;;;;;;11.10;2.40;;;17.10;99.90;;;;;;5013776;28;20399;-76
2022/10/07 13:10:17;;;;;;;12.25;2.60;;;17.10;99.90;;;;;;5024186;28;21023;-76
2022/10/07 13:12:54;;;;;;;10.82;3.25;;;17.10;99.90;;;;;;5021880;28;20065;-78
2022/10/07 13:15:43;;;;;;;15.77;2.83;;;17.00;99.90;;;;;;5019617;28;20044;-80
2022/10/07 13:18:20;;;;;;;11.65;2.88;;;17.10;99.90;;;;;;5014857;28;20049;-79
2022/10/07 13:21:06;;;;;;;;;;;17.20;99.90;;;;;;5026171;28;20045;-78